Larissa , Thessalia , Greece
39° 38' 00"N, 22° 25' 00"E, Elevation 263 ft.
Χειμερινή Time

Hourly observations for the last 48 hours

Date

Time

Temperature (°C) Humi-
dity
(%)
Wind
(kmph)
Pressure Rain (mm) Sun
(W/m2)
UV ET
(mm)
Air Dew 6 Hour 1 Hr 3 Hr 6 Hr Day
Alt
(in)
Sea
Level
(mb)
Max Min
24 18:00 25.1 10.9 41 ENE 10 G 22 29.96 1014.6 0.00 173 0.0 3.429
24 17:00 26.9 5.8 26 E 5 G 22 29.96 1014.6 0.00 449 0.0 3.200
24 16:00 27.4 3.9 22 E 12 G 27 29.98 1015.1 0.00 534 0.0 2.870
24 15:00 27.1 4.2 27.1 15.4 23 E 9 G 22 29.98 1015.3 0.00 590 0.0 2.438
24 14:00 26.1 4.6 25 N 4 G 9 30.00 1016.1 0.00 654 0.0 2.007
24 13:00 24.8 5.0 28 N 7 G 12 30.03 1016.8 0.00 656 0.0 1.575
24 12:00 22.5 5.4 33 WSW 1 G 4 30.04 1017.3 0.00 685 0.0 1.194
24 11:00 20.1 5.4 38 N 0 G 4 30.05 1017.8 0.00 515 0.0 0.864
24 10:00 17.9 5.5 44 N 2 G 4 30.07 1018.3 0.00 329 0.0 0.610
24 09:00 15.4 5.0 17.7 13.9 50 NE 2 G 4 30.07 1018.2 0.00 142 0.0 0.457
24 08:00 14.1 4.9 54 Calm 30.06 1017.8 0.00 38 0.0 0.381
24 07:00 14.3 5.2 54 Calm 30.04 1017.3 0.00 0 0.0 0.356
24 06:00 14.9 5.9 55 NNE 0 G 3 30.04 1017.4 0.00 0 0.0 0.305
24 05:00 15.2 4.6 49 SE 1 G 4 30.04 1017.2 0.00 0 0.0 0.254
24 04:00 16.2 6.0 51 NNE 3 G 4 30.05 1017.6 0.00 0 0.0 0.203
24 03:00 17.7 5.3 20.1 17.3 44 W 1 G 3 30.06 1017.8 0.00 0 0.0 0.152
24 02:00 17.5 4.8 43 Calm 30.07 1018.2 0.00 0 0.0 0.102
24 01:00 17.5 5.1 44 NNW 0 G 3 30.06 1017.8 0.00 0 0.0 0.051
24 00:00 17.7 4.9 43 N 2 G 4 30.06 1017.9 0.00 0 0.0 0.000
23 23:00 18.5 4.7 40 N 0 G 3 30.05 1017.7 0.00 0 0.0 3.810
23 22:00 19.3 3.8 36 ESE 0 G 3 30.04 1017.4 0.00 0 0.0 3.759
23 21:00 20.1 3.8 25.9 20.1 34 ESE 2 G 8 30.03 1017.1 0.00 0 0.0 3.683
23 20:00 20.9 3.6 32 E 4 G 14 30.01 1016.4 0.00 0 0.0 3.607
23 19:00 22.7 4.2 30 N 6 G 17 30.00 1016.1 0.00 22 0.0 3.531
23 18:00 24.4 4.2 27 NE 9 G 19 29.99 1015.7 0.00 187 0.0 3.378
23 17:00 25.6 2.3 22 E 2 G 9 29.99 1015.7 0.00 371 0.0 3.150
23 16:00 24.8 2.9 24 W 3 G 9 30.01 1016.3 0.00 518 0.0 2.870
23 15:00 24.4 2.5 24.5 15.7 24 SSW 1 G 12 30.03 1016.8 0.00 648 0.0 2.515
23 14:00 23.8 2.6 25 E 3 G 12 30.04 1017.3 0.00 721 0.0 2.108
23 13:00 22.8 2.9 27 ESE 6 G 9 30.07 1018.2 0.00 727 0.0 1.676
23 12:00 21.4 3.6 31 NE 4 G 8 30.08 1018.7 0.00 685 0.0 1.270
23 11:00 20.1 3.8 34 S 2 G 8 30.09 1018.9 0.00 590 0.0 0.914
23 10:00 18.1 3.6 38 S 2 G 8 30.09 1018.9 0.00 443 0.0 0.635
23 09:00 15.7 5.3 16.9 13.1 50 Calm 30.08 1018.6 0.00 83 0.0 0.457
23 08:00 14.1 4.1 51 Calm 30.07 1018.3 0.00 31 0.0 0.381
23 07:00 13.2 3.0 50 ESE 0 G 4 30.07 1018.2 0.00 0 0.0 0.356
23 06:00 15.8 2.9 42 NW 1 G 4 30.06 1017.8 0.00 0 0.0 0.305
23 05:00 15.8 3.6 44 NNW 0 G 1 30.06 1017.8 0.00 0 0.0 0.254
23 04:00 16.3 3.7 43 NNW 3 G 4 30.05 1017.7 0.00 0 0.0 0.203
23 03:00 16.8 4.1 20.3 16.8 43 N 0 G 3 30.05 1017.5 0.00 0 0.0 0.152
23 02:00 17.8 4.8 42 N 3 G 6 30.05 1017.5 0.00 0 0.0 0.102
23 01:00 18.1 5.3 43 Calm 30.04 1017.3 0.00 0 0.0 0.051
23 00:00 18.4 4.2 39 NNW 4 G 6 30.02 1016.8 0.00 0 0.0 0.000
22 23:00 19.3 4.6 38 N 3 G 4 30.02 1016.5 0.00 0 0.0 4.521
22 22:00 19.8 3.9 35 ENE 0 G 8 30.00 1016.1 0.00 0 0.0 4.445
22 21:00 20.1 4.1 26.6 20.1 35 NNE 0 G 4 29.98 1015.2 0.00 0 0.0 4.369
22 20:00 21.2 4.3 33 NE 1 G 14 29.95 1014.1 0.00 0 0.0 4.293
22 19:00 22.9 4.5 30 N 3 G 9 29.91 1013.0 0.00 30 0.0 4.242

Data generated by WxSolution Version 1.8.4.2, Build 2009.03.29.